Hamnavoe — VSTY7 — position and weather

sailwx.info

Track history (hours):
 
Tides and Currents Weather Stations Pressure Air Temp Water Temp Dewpoint Dewpoint Depression Visibility Wind Speed Wind Dir Waves Ship Positions

Hamnavoe

Operator: NorthLink Orkey & Shetland Ferries Ltd

Last reported at 2014-Nov-26 02:31 UTC. Time now 2014-Nov-26 03:00 UTC.
Position N 58°58' W 003°18'.

Length 112 m; draft 4.4 m.

Type: Ship. MMSI: 235449000.

Date/timePositionNaut miles runAvg speedWind from/ knotsBaromVisibWave heightAir tempDewpointWater temp
2014-Nov-26 02:31N 58°58' W 003°18'0 0.0
2014-Nov-26 01:31N 58°58' W 003°18'0 0.0
2014-Nov-26 00:31N 58°58' W 003°18'0 0.0
2014-Nov-25 23:31N 58°58' W 003°18'0 0.0
2014-Nov-25 22:31N 58°58' W 003°18'0 0.0
2014-Nov-25 21:31N 58°58' W 003°18'0 0.0
2014-Nov-25 20:33N 58°58' W 003°18'1212.3
2014-Nov-25 19:33N 58°47' W 003°30'0 0.2
2014-Nov-25 17:33N 58°48' W 003°29'1211.9
2014-Nov-25 16:33N 58°58' W 003°18'0 0.0
2014-Nov-25 15:29N 58°58' W 003°18'0 0.0
2014-Nov-25 14:29N 58°58' W 003°18'0 0.0
2014-Nov-25 12:29N 58°58' W 003°18'0 0.0
2014-Nov-25 11:29N 58°58' W 003°18'0 0.0
2014-Nov-25 10:29N 58°58' W 003°18'7 7.5
2014-Nov-25 09:33N 58°53' W 003°28'10 5.1
2014-Nov-25 07:33N 58°43' W 003°31'1615.6
2014-Nov-25 06:33N 58°57' W 003°18'1 0.3
2014-Nov-25 03:08N 58°58' W 003°18'0 0.0
2014-Nov-25 02:29N 58°58' W 003°18'0 0.0
2014-Nov-25 01:32N 58°58' W 003°18'0 0.0
2014-Nov-25 00:32N 58°58' W 003°18'0 0.0
2014-Nov-24 23:26N 58°58' W 003°18'0 0.0
2014-Nov-24 22:11N 58°58' W 003°18'0 0.0
2014-Nov-24 21:14N 58°58' W 003°18'0 0.0
2014-Nov-24 20:30N 58°58' W 003°18'1213.2
2014-Nov-24 19:33N 58°47' W 003°29'1 0.5
2014-Nov-24 17:33N 58°48' W 003°29'1211.2
2014-Nov-24 16:31N 58°58' W 003°18'0 0.0
2014-Nov-24 15:33N 58°58' W 003°18'0 0.0
2014-Nov-24 14:33N 58°58' W 003°18'0 0.0
2014-Nov-24 13:33N 58°58' W 003°18'0 0.0
2014-Nov-24 12:33N 58°58' W 003°18'0 0.0
2014-Nov-24 11:33N 58°58' W 003°18'0 0.0
2014-Nov-24 10:33N 58°58' W 003°18'1111.1
2014-Nov-24 09:33N 58°48' W 003°07'12 6.2
2014-Nov-24 07:33N 58°44' W 003°31'1414.4
2014-Nov-24 06:33N 58°57' W 003°18'1 0.5
2014-Nov-24 05:32N 58°58' W 003°18'0 0.0
2014-Nov-24 04:26N 58°58' W 003°18'0 0.0
2014-Nov-24 03:32N 58°58' W 003°18'0 0.0
2014-Nov-24 01:32N 58°58' W 003°18'0 0.0
2014-Nov-24 00:26N 58°58' W 003°18'0 0.0
2014-Nov-23 23:26N 58°58' W 003°18'0 0.0
2014-Nov-23 22:26N 58°58' W 003°18'0 0.0
2014-Nov-23 21:33N 58°58' W 003°18'0 0.2
2014-Nov-23 20:33N 58°58' W 003°18'1413.3
2014-Nov-23 19:31N 58°44' W 003°16'1110.9
2014-Nov-23 18:31N 58°37' W 003°32'1212.6
2014-Nov-23 17:33N 58°49' W 003°29'1110.8
2014-Nov-23 16:33N 58°58' W 003°18'0 0.0
2014-Nov-23 15:28N 58°58' W 003°18'0 0.0
2014-Nov-23 14:28N 58°58' W 003°18'0 0.0
2014-Nov-23 13:33N 58°58' W 003°18'1111.0
2014-Nov-23 12:33N 58°49' W 003°29'9 3.8
2014-Nov-23 10:13N 58°40' W 003°31'1218.3
2014-Nov-23 09:33N 58°52' W 003°28'8 7.7
2014-Nov-23 08:30N 58°58' W 003°18'0 0.0
2014-Nov-23 07:30N 58°58' W 003°18'0 0.0
2014-Nov-23 06:33N 58°58' W 003°18'0 0.0
2014-Nov-23 05:18N 58°58' W 003°18'0 0.0
2014-Nov-23 04:33N 58°58' W 003°18'0 0.0
2014-Nov-23 03:33N 58°58' W 003°18'0 0.0
2014-Nov-23 02:33N 58°58' W 003°18'0 0.0
2014-Nov-23 01:33N 58°58' W 003°18'0 0.0
2014-Nov-23 00:30N 58°58' W 003°18'0 0.0
2014-Nov-22 23:33N 58°58' W 003°18'0 0.0
2014-Nov-22 22:30N 58°58' W 003°18'0 0.0
2014-Nov-22 21:24N 58°58' W 003°18'0 0.0
2014-Nov-22 20:30N 58°58' W 003°18'1111.4
2014-Nov-22 19:33N 58°49' W 003°29'0 0.1
2014-Nov-22 17:33N 58°49' W 003°29'1110.5
2014-Nov-22 16:32N 58°58' W 003°18'0 0.0
2014-Nov-22 15:32N 58°58' W 003°18'0 0.0
2014-Nov-22 14:26N 58°58' W 003°18'0 0.0
2014-Nov-22 13:34N 58°58' W 003°18'1110.8
2014-Nov-22 12:33N 58°48' W 003°28'1211.0
2014-Nov-22 11:28N 58°37' W 003°32'0 0.0
2014-Nov-22 10:33N 58°37' W 003°32'1515.2
2014-Nov-22 09:33N 58°52' W 003°28'8 7.5
2014-Nov-22 08:28N 58°58' W 003°18'0 0.0
2014-Nov-22 07:22N 58°58' W 003°18'0 0.0
2014-Nov-22 06:22N 58°58' W 003°18'0 0.0
2014-Nov-22 05:22N 58°58' W 003°18'0 0.0
2014-Nov-22 04:28N 58°58' W 003°18'0 0.0
2014-Nov-22 03:28N 58°58' W 003°18'0 0.0
2014-Nov-22 02:28N 58°58' W 003°18'0 0.0
2014-Nov-22 01:22N 58°58' W 003°18'0 0.0
2014-Nov-21 20:33N 58°58' W 003°18'1212.2
2014-Nov-21 19:33N 58°47' W 003°29'11 8.5
2014-Nov-21 18:17N 58°37' W 003°32'1216.7
2014-Nov-21 17:34N 58°48' W 003°29'1111.0
2014-Nov-21 16:33N 58°58' W 003°18'0 0.0
2014-Nov-21 15:31N 58°58' W 003°18'0 0.0
2014-Nov-21 14:31N 58°58' W 003°18'0 0.0
2014-Nov-21 13:31N 58°58' W 003°18'0 0.0
2014-Nov-21 12:31N 58°58' W 003°18'0 0.0
2014-Nov-21 11:31N 58°58' W 003°18'0 0.0
2014-Nov-21 10:28N 58°58' W 003°18'8 8.8
2014-Nov-21 09:33N 58°52' W 003°29'1513.8
2014-Nov-21 08:26N 58°37' W 003°32'6 6.7
2014-Nov-21 07:33N 58°42' W 003°30'1615.6
2014-Nov-21 06:33N 58°57' W 003°18'1 1.0
2014-Nov-21 05:33N 58°58' W 003°18'0 0.0
2014-Nov-21 04:31N 58°58' W 003°18'0 0.0
2014-Nov-21 03:32N 58°58' W 003°18'0 0.0
2014-Nov-21 02:30N 58°58' W 003°18'0 0.0
2014-Nov-21 01:31N 58°58' W 003°18'0 0.0
2014-Nov-21 00:31N 58°58' W 003°18'0 0.0
2014-Nov-20 23:32N 58°58' W 003°18'0 0.0
2014-Nov-20 22:28N 58°58' W 003°18'0 0.0
2014-Nov-20 21:28N 58°58' W 003°18'0 0.0
2014-Nov-20 20:33N 58°58' W 003°18'1211.8
2014-Nov-20 19:33N 58°48' W 003°29'1110.7
2014-Nov-20 18:31N 58°37' W 003°32'9 9.6
2014-Nov-20 17:33N 58°46' W 003°30'13 6.4
2014-Nov-20 15:26N 58°58' W 003°18'0 0.0
2014-Nov-20 14:29N 58°58' W 003°18'0 0.0
2014-Nov-20 13:32N 58°58' W 003°18'0 0.0
2014-Nov-20 12:32N 58°58' W 003°18'0 0.0
2014-Nov-20 11:32N 58°58' W 003°18'0 0.0
2014-Nov-20 10:19N 58°58' W 003°18'810.0
2014-Nov-20 09:33N 58°52' W 003°28'1615.5
2014-Nov-20 08:32N 58°37' W 003°32'6 6.5
2014-Nov-20 07:33N 58°43' W 003°30'1615.6
2014-Nov-20 06:33N 58°57' W 003°17'1 0.7
2014-Nov-20 05:27N 58°58' W 003°18'0 0.0
2014-Nov-20 04:33N 58°58' W 003°18'0 0.0
2014-Nov-20 03:27N 58°58' W 003°18'0 0.0
2014-Nov-20 02:33N 58°58' W 003°18'0 0.0
2014-Nov-20 01:27N 58°58' W 003°18'0 0.0
2014-Nov-20 00:03N 58°58' W 003°18'0 0.0
2014-Nov-19 23:03N 58°58' W 003°18'0 0.0
2014-Nov-19 22:15N 58°58' W 003°18'0 0.0
2014-Nov-19 21:27N 58°58' W 003°18'0 0.0
2014-Nov-19 20:27N 58°58' W 003°18'1112.9
2014-Nov-19 19:33N 58°48' W 003°29'12 9.0
2014-Nov-19 18:16N 58°37' W 003°32'1114.9
2014-Nov-19 17:33N 58°47' W 003°29'1212.0
2014-Nov-19 16:33N 58°58' W 003°18'0 0.0
2014-Nov-19 15:33N 58°58' W 003°18'9 1.5
2014-Nov-19 09:25N 58°51' W 003°29'9 4.8
2014-Nov-19 07:33N 58°42' W 003°30'1616.1
2014-Nov-19 06:33N 58°57' W 003°18'1 1.0
2014-Nov-19 05:28N 58°58' W 003°18'0 0.0
2014-Nov-19 04:28N 58°58' W 003°18'0 0.0
2014-Nov-19 03:28N 58°58' W 003°18'0 0.0
2014-Nov-19 02:28N 58°58' W 003°18'0 0.0
2014-Nov-19 01:22N 58°58' W 003°18'0 0.0
2014-Nov-19 00:31N 58°58' W 003°18'0 0.0
2014-Nov-18 23:31N 58°58' W 003°18'0 0.0
2014-Nov-18 22:28N 58°58' W 003°18'0 0.0
2014-Nov-18 21:28N 58°58' W 003°18'0 0.0
2014-Nov-18 20:29N 58°58' W 003°18'1111.7
2014-Nov-18 19:33N 58°48' W 003°28'1 0.7
2014-Nov-18 17:33N 58°47' W 003°29'1212.2
2014-Nov-18 16:33N 58°58' W 003°18'0 0.0
2014-Nov-18 15:33N 58°58' W 003°18'0 0.0
2014-Nov-18 14:33N 58°58' W 003°18'0 0.0
2014-Nov-18 13:33N 58°58' W 003°18'0 0.0
2014-Nov-18 12:33N 58°58' W 003°18'0 0.0
2014-Nov-18 11:33N 58°58' W 003°18'0 0.0
2014-Nov-18 10:33N 58°58' W 003°18'7 6.6
2014-Nov-18 09:33N 58°53' W 003°27'1717.1
2014-Nov-18 08:33N 58°37' W 003°32'6 6.0
2014-Nov-18 07:34N 58°43' W 003°30'1616.1
2014-Nov-18 06:33N 58°57' W 003°18'1 0.5
2014-Nov-18 05:29N 58°58' W 003°18'0 0.0
2014-Nov-18 04:29N 58°58' W 003°18'0 0.0
2014-Nov-18 03:29N 58°58' W 003°18'0 0.0
2014-Nov-18 02:29N 58°58' W 003°18'0 0.0
2014-Nov-18 01:29N 58°58' W 003°18'0 0.0
2014-Nov-18 00:29N 58°58' W 003°18'0 0.0
2014-Nov-17 23:29N 58°58' W 003°18'0 0.0
2014-Nov-17 22:29N 58°58' W 003°18'0 0.0
2014-Nov-17 21:29N 58°58' W 003°18'0 0.0
2014-Nov-17 20:33N 58°58' W 003°18'1010.5
2014-Nov-17 19:34N 58°49' W 003°28'1212.4
2014-Nov-17 18:33N 58°37' W 003°32'10 9.9
2014-Nov-17 17:33N 58°46' W 003°29'1312.9
2014-Nov-17 16:33N 58°58' W 003°18'0 0.0
2014-Nov-17 15:32N 58°58' W 003°18'0 0.0
2014-Nov-17 14:32N 58°58' W 003°18'0 0.0
2014-Nov-17 13:32N 58°58' W 003°18'0 0.0
2014-Nov-17 12:32N 58°58' W 003°18'0 0.0
2014-Nov-17 11:32N 58°58' W 003°18'0 0.0
2014-Nov-17 10:32N 58°58' W 003°18'7 6.8
2014-Nov-17 09:33N 58°53' W 003°27'1716.7
2014-Nov-17 08:33N 58°37' W 003°32'5 5.5
2014-Nov-17 07:33N 58°42' W 003°30'1616.5
2014-Nov-17 06:33N 58°57' W 003°17'1 0.8
2014-Nov-17 05:33N 58°58' W 003°18'0 0.0
2014-Nov-17 04:33N 58°58' W 003°18'0 0.0
2014-Nov-17 03:33N 58°58' W 003°18'0 0.0
2014-Nov-17 02:33N 58°58' W 003°18'0 0.0
2014-Nov-17 01:33N 58°58' W 003°18'0 0.0
2014-Nov-17 00:33N 58°58' W 003°18'0 0.0
2014-Nov-16 23:33N 58°58' W 003°18'0 0.0
2014-Nov-16 22:33N 58°58' W 003°18'0 0.0
2014-Nov-16 21:30N 58°58' W 003°18'0 0.0
2014-Nov-16 20:33N 58°58' W 003°18'1414.0
2014-Nov-16 19:33N 58°45' W 003°30'9 8.6
2014-Nov-16 18:33N 58°37' W 003°32'1111.1
2014-Nov-16 17:33N 58°48' W 003°29'1211.9
2014-Nov-16 16:33N 58°58' W 003°18'0 0.0
2014-Nov-16 15:33N 58°58' W 003°18'0 0.0
2014-Nov-16 14:33N 58°58' W 003°18'0 0.0
2014-Nov-16 13:33N 58°58' W 003°18'1111.0
2014-Nov-16 12:34N 58°48' W 003°29'1211.6
2014-Nov-16 11:31N 58°37' W 003°32'1 1.1
2014-Nov-16 10:27N 58°38' W 003°31'1618.0
2014-Nov-16 09:33N 58°54' W 003°27'6 5.8
2014-Nov-16 08:29N 58°58' W 003°18'0 0.0
2014-Nov-16 07:29N 58°58' W 003°18'0 0.0
2014-Nov-16 06:29N 58°58' W 003°18'0 0.0
2014-Nov-16 05:29N 58°58' W 003°18'0 0.0
2014-Nov-16 04:29N 58°58' W 003°18'0 0.0
2014-Nov-16 03:29N 58°58' W 003°18'  
Track history (hours):
 
Tides and Currents Weather Stations Pressure Air Temp Water Temp Dewpoint Dewpoint Depression Visibility Wind Speed Wind Dir Waves Ship Positions

Hamnavoe

Operator: NorthLink Orkey & Shetland Ferries Ltd

Last reported at 2014-Nov-26 02:31 UTC. Time now 2014-Nov-26 03:00 UTC.
Position N 58°58' W 003°18'.

Length 112 m; draft 4.4 m.

Type: Ship. MMSI: 235449000.

Date/timePositionNaut miles runAvg speedWind from/ knotsBaromVisibWave heightAir tempDewpointWater temp
2014-Nov-26 02:31N 58°58' W 003°18'0 0.0
2014-Nov-26 01:31N 58°58' W 003°18'0 0.0
2014-Nov-26 00:31N 58°58' W 003°18'0 0.0
2014-Nov-25 23:31N 58°58' W 003°18'0 0.0
2014-Nov-25 22:31N 58°58' W 003°18'0 0.0
2014-Nov-25 21:31N 58°58' W 003°18'0 0.0
2014-Nov-25 20:33N 58°58' W 003°18'1212.3
2014-Nov-25 19:33N 58°47' W 003°30'0 0.2
2014-Nov-25 17:33N 58°48' W 003°29'1211.9
2014-Nov-25 16:33N 58°58' W 003°18'0 0.0
2014-Nov-25 15:29N 58°58' W 003°18'0 0.0
2014-Nov-25 14:29N 58°58' W 003°18'0 0.0
2014-Nov-25 12:29N 58°58' W 003°18'0 0.0
2014-Nov-25 11:29N 58°58' W 003°18'0 0.0
2014-Nov-25 10:29N 58°58' W 003°18'7 7.5
2014-Nov-25 09:33N 58°53' W 003°28'10 5.1
2014-Nov-25 07:33N 58°43' W 003°31'1615.6
2014-Nov-25 06:33N 58°57' W 003°18'1 0.3
2014-Nov-25 03:08N 58°58' W 003°18'0 0.0
2014-Nov-25 02:29N 58°58' W 003°18'0 0.0
2014-Nov-25 01:32N 58°58' W 003°18'0 0.0
2014-Nov-25 00:32N 58°58' W 003°18'0 0.0
2014-Nov-24 23:26N 58°58' W 003°18'0 0.0
2014-Nov-24 22:11N 58°58' W 003°18'0 0.0
2014-Nov-24 21:14N 58°58' W 003°18'0 0.0
2014-Nov-24 20:30N 58°58' W 003°18'1213.2
2014-Nov-24 19:33N 58°47' W 003°29'1 0.5
2014-Nov-24 17:33N 58°48' W 003°29'1211.2
2014-Nov-24 16:31N 58°58' W 003°18'0 0.0
2014-Nov-24 15:33N 58°58' W 003°18'0 0.0
2014-Nov-24 14:33N 58°58' W 003°18'0 0.0
2014-Nov-24 13:33N 58°58' W 003°18'0 0.0
2014-Nov-24 12:33N 58°58' W 003°18'0 0.0
2014-Nov-24 11:33N 58°58' W 003°18'0 0.0
2014-Nov-24 10:33N 58°58' W 003°18'1111.1
2014-Nov-24 09:33N 58°48' W 003°07'12 6.2
2014-Nov-24 07:33N 58°44' W 003°31'1414.4
2014-Nov-24 06:33N 58°57' W 003°18'1 0.5
2014-Nov-24 05:32N 58°58' W 003°18'0 0.0
2014-Nov-24 04:26N 58°58' W 003°18'0 0.0
2014-Nov-24 03:32N 58°58' W 003°18'0 0.0
2014-Nov-24 01:32N 58°58' W 003°18'0 0.0
2014-Nov-24 00:26N 58°58' W 003°18'0 0.0
2014-Nov-23 23:26N 58°58' W 003°18'0 0.0
2014-Nov-23 22:26N 58°58' W 003°18'0 0.0
2014-Nov-23 21:33N 58°58' W 003°18'0 0.2
2014-Nov-23 20:33N 58°58' W 003°18'1413.3
2014-Nov-23 19:31N 58°44' W 003°16'1110.9
2014-Nov-23 18:31N 58°37' W 003°32'1212.6
2014-Nov-23 17:33N 58°49' W 003°29'1110.8
2014-Nov-23 16:33N 58°58' W 003°18'0 0.0
2014-Nov-23 15:28N 58°58' W 003°18'0 0.0
2014-Nov-23 14:28N 58°58' W 003°18'0 0.0
2014-Nov-23 13:33N 58°58' W 003°18'1111.0
2014-Nov-23 12:33N 58°49' W 003°29'9 3.8
2014-Nov-23 10:13N 58°40' W 003°31'1218.3
2014-Nov-23 09:33N 58°52' W 003°28'8 7.7
2014-Nov-23 08:30N 58°58' W 003°18'0 0.0
2014-Nov-23 07:30N 58°58' W 003°18'0 0.0
2014-Nov-23 06:33N 58°58' W 003°18'0 0.0
2014-Nov-23 05:18N 58°58' W 003°18'0 0.0
2014-Nov-23 04:33N 58°58' W 003°18'0 0.0
2014-Nov-23 03:33N 58°58' W 003°18'0 0.0
2014-Nov-23 02:33N 58°58' W 003°18'0 0.0
2014-Nov-23 01:33N 58°58' W 003°18'0 0.0
2014-Nov-23 00:30N 58°58' W 003°18'0 0.0
2014-Nov-22 23:33N 58°58' W 003°18'0 0.0
2014-Nov-22 22:30N 58°58' W 003°18'0 0.0
2014-Nov-22 21:24N 58°58' W 003°18'0 0.0
2014-Nov-22 20:30N 58°58' W 003°18'1111.4
2014-Nov-22 19:33N 58°49' W 003°29'0 0.1
2014-Nov-22 17:33N 58°49' W 003°29'1110.5
2014-Nov-22 16:32N 58°58' W 003°18'0 0.0
2014-Nov-22 15:32N 58°58' W 003°18'0 0.0
2014-Nov-22 14:26N 58°58' W 003°18'0 0.0
2014-Nov-22 13:34N 58°58' W 003°18'1110.8
2014-Nov-22 12:33N 58°48' W 003°28'1211.0
2014-Nov-22 11:28N 58°37' W 003°32'0 0.0
2014-Nov-22 10:33N 58°37' W 003°32'1515.2
2014-Nov-22 09:33N 58°52' W 003°28'8 7.5
2014-Nov-22 08:28N 58°58' W 003°18'0 0.0
2014-Nov-22 07:22N 58°58' W 003°18'0 0.0
2014-Nov-22 06:22N 58°58' W 003°18'0 0.0
2014-Nov-22 05:22N 58°58' W 003°18'0 0.0
2014-Nov-22 04:28N 58°58' W 003°18'0 0.0
2014-Nov-22 03:28N 58°58' W 003°18'0 0.0
2014-Nov-22 02:28N 58°58' W 003°18'0 0.0
2014-Nov-22 01:22N 58°58' W 003°18'0 0.0
2014-Nov-21 20:33N 58°58' W 003°18'1212.2
2014-Nov-21 19:33N 58°47' W 003°29'11 8.5
2014-Nov-21 18:17N 58°37' W 003°32'1216.7
2014-Nov-21 17:34N 58°48' W 003°29'1111.0
2014-Nov-21 16:33N 58°58' W 003°18'0 0.0
2014-Nov-21 15:31N 58°58' W 003°18'0 0.0
2014-Nov-21 14:31N 58°58' W 003°18'0 0.0
2014-Nov-21 13:31N 58°58' W 003°18'0 0.0
2014-Nov-21 12:31N 58°58' W 003°18'0 0.0
2014-Nov-21 11:31N 58°58' W 003°18'0 0.0
2014-Nov-21 10:28N 58°58' W 003°18'8 8.8
2014-Nov-21 09:33N 58°52' W 003°29'1513.8
2014-Nov-21 08:26N 58°37' W 003°32'6 6.7
2014-Nov-21 07:33N 58°42' W 003°30'1615.6
2014-Nov-21 06:33N 58°57' W 003°18'1 1.0
2014-Nov-21 05:33N 58°58' W 003°18'0 0.0
2014-Nov-21 04:31N 58°58' W 003°18'0 0.0
2014-Nov-21 03:32N 58°58' W 003°18'0 0.0
2014-Nov-21 02:30N 58°58' W 003°18'0 0.0
2014-Nov-21 01:31N 58°58' W 003°18'0 0.0
2014-Nov-21 00:31N 58°58' W 003°18'0 0.0
2014-Nov-20 23:32N 58°58' W 003°18'0 0.0
2014-Nov-20 22:28N 58°58' W 003°18'0 0.0
2014-Nov-20 21:28N 58°58' W 003°18'0 0.0
2014-Nov-20 20:33N 58°58' W 003°18'1211.8
2014-Nov-20 19:33N 58°48' W 003°29'1110.7
2014-Nov-20 18:31N 58°37' W 003°32'9 9.6
2014-Nov-20 17:33N 58°46' W 003°30'13 6.4
2014-Nov-20 15:26N 58°58' W 003°18'0 0.0
2014-Nov-20 14:29N 58°58' W 003°18'0 0.0
2014-Nov-20 13:32N 58°58' W 003°18'0 0.0
2014-Nov-20 12:32N 58°58' W 003°18'0 0.0
2014-Nov-20 11:32N 58°58' W 003°18'0 0.0
2014-Nov-20 10:19N 58°58' W 003°18'810.0
2014-Nov-20 09:33N 58°52' W 003°28'1615.5
2014-Nov-20 08:32N 58°37' W 003°32'6 6.5
2014-Nov-20 07:33N 58°43' W 003°30'1615.6
2014-Nov-20 06:33N 58°57' W 003°17'1 0.7
2014-Nov-20 05:27N 58°58' W 003°18'0 0.0
2014-Nov-20 04:33N 58°58' W 003°18'0 0.0
2014-Nov-20 03:27N 58°58' W 003°18'0 0.0
2014-Nov-20 02:33N 58°58' W 003°18'0 0.0
2014-Nov-20 01:27N 58°58' W 003°18'0 0.0
2014-Nov-20 00:03N 58°58' W 003°18'0 0.0
2014-Nov-19 23:03N 58°58' W 003°18'0 0.0
2014-Nov-19 22:15N 58°58' W 003°18'0 0.0
2014-Nov-19 21:27N 58°58' W 003°18'0 0.0
2014-Nov-19 20:27N 58°58' W 003°18'1112.9
2014-Nov-19 19:33N 58°48' W 003°29'12 9.0
2014-Nov-19 18:16N 58°37' W 003°32'1114.9
2014-Nov-19 17:33N 58°47' W 003°29'1212.0
2014-Nov-19 16:33N 58°58' W 003°18'0 0.0
2014-Nov-19 15:33N 58°58' W 003°18'9 1.5
2014-Nov-19 09:25N 58°51' W 003°29'9 4.8
2014-Nov-19 07:33N 58°42' W 003°30'1616.1
2014-Nov-19 06:33N 58°57' W 003°18'1 1.0
2014-Nov-19 05:28N 58°58' W 003°18'0 0.0
2014-Nov-19 04:28N 58°58' W 003°18'0 0.0
2014-Nov-19 03:28N 58°58' W 003°18'0 0.0
2014-Nov-19 02:28N 58°58' W 003°18'0 0.0
2014-Nov-19 01:22N 58°58' W 003°18'0 0.0
2014-Nov-19 00:31N 58°58' W 003°18'0 0.0
2014-Nov-18 23:31N 58°58' W 003°18'0 0.0
2014-Nov-18 22:28N 58°58' W 003°18'0 0.0
2014-Nov-18 21:28N 58°58' W 003°18'0 0.0
2014-Nov-18 20:29N 58°58' W 003°18'1111.7
2014-Nov-18 19:33N 58°48' W 003°28'1 0.7
2014-Nov-18 17:33N 58°47' W 003°29'1212.2
2014-Nov-18 16:33N 58°58' W 003°18'0 0.0
2014-Nov-18 15:33N 58°58' W 003°18'0 0.0
2014-Nov-18 14:33N 58°58' W 003°18'0 0.0
2014-Nov-18 13:33N 58°58' W 003°18'0 0.0
2014-Nov-18 12:33N 58°58' W 003°18'0 0.0
2014-Nov-18 11:33N 58°58' W 003°18'0 0.0
2014-Nov-18 10:33N 58°58' W 003°18'7 6.6
2014-Nov-18 09:33N 58°53' W 003°27'1717.1
2014-Nov-18 08:33N 58°37' W 003°32'6 6.0
2014-Nov-18 07:34N 58°43' W 003°30'1616.1
2014-Nov-18 06:33N 58°57' W 003°18'1 0.5
2014-Nov-18 05:29N 58°58' W 003°18'0 0.0
2014-Nov-18 04:29N 58°58' W 003°18'0 0.0
2014-Nov-18 03:29N 58°58' W 003°18'0 0.0
2014-Nov-18 02:29N 58°58' W 003°18'0 0.0
2014-Nov-18 01:29N 58°58' W 003°18'0 0.0
2014-Nov-18 00:29N 58°58' W 003°18'0 0.0
2014-Nov-17 23:29N 58°58' W 003°18'0 0.0
2014-Nov-17 22:29N 58°58' W 003°18'0 0.0
2014-Nov-17 21:29N 58°58' W 003°18'0 0.0
2014-Nov-17 20:33N 58°58' W 003°18'1010.5
2014-Nov-17 19:34N 58°49' W 003°28'1212.4
2014-Nov-17 18:33N 58°37' W 003°32'10 9.9
2014-Nov-17 17:33N 58°46' W 003°29'1312.9
2014-Nov-17 16:33N 58°58' W 003°18'0 0.0
2014-Nov-17 15:32N 58°58' W 003°18'0 0.0
2014-Nov-17 14:32N 58°58' W 003°18'0 0.0
2014-Nov-17 13:32N 58°58' W 003°18'0 0.0
2014-Nov-17 12:32N 58°58' W 003°18'0 0.0
2014-Nov-17 11:32N 58°58' W 003°18'0 0.0
2014-Nov-17 10:32N 58°58' W 003°18'7 6.8
2014-Nov-17 09:33N 58°53' W 003°27'1716.7
2014-Nov-17 08:33N 58°37' W 003°32'5 5.5
2014-Nov-17 07:33N 58°42' W 003°30'1616.5
2014-Nov-17 06:33N 58°57' W 003°17'1 0.8
2014-Nov-17 05:33N 58°58' W 003°18'0 0.0
2014-Nov-17 04:33N 58°58' W 003°18'0 0.0
2014-Nov-17 03:33N 58°58' W 003°18'0 0.0
2014-Nov-17 02:33N 58°58' W 003°18'0 0.0
2014-Nov-17 01:33N 58°58' W 003°18'0 0.0
2014-Nov-17 00:33N 58°58' W 003°18'0 0.0
2014-Nov-16 23:33N 58°58' W 003°18'0 0.0
2014-Nov-16 22:33N 58°58' W 003°18'0 0.0
2014-Nov-16 21:30N 58°58' W 003°18'0 0.0
2014-Nov-16 20:33N 58°58' W 003°18'1414.0
2014-Nov-16 19:33N 58°45' W 003°30'9 8.6
2014-Nov-16 18:33N 58°37' W 003°32'1111.1
2014-Nov-16 17:33N 58°48' W 003°29'1211.9
2014-Nov-16 16:33N 58°58' W 003°18'0 0.0
2014-Nov-16 15:33N 58°58' W 003°18'0 0.0
2014-Nov-16 14:33N 58°58' W 003°18'0 0.0
2014-Nov-16 13:33N 58°58' W 003°18'1111.0
2014-Nov-16 12:34N 58°48' W 003°29'1211.6
2014-Nov-16 11:31N 58°37' W 003°32'1 1.1
2014-Nov-16 10:27N 58°38' W 003°31'1618.0
2014-Nov-16 09:33N 58°54' W 003°27'6 5.8
2014-Nov-16 08:29N 58°58' W 003°18'0 0.0
2014-Nov-16 07:29N 58°58' W 003°18'0 0.0
2014-Nov-16 06:29N 58°58' W 003°18'0 0.0
2014-Nov-16 05:29N 58°58' W 003°18'0 0.0
2014-Nov-16 04:29N 58°58' W 003°18'0 0.0
2014-Nov-16 03:29N 58°58' W 003°18'  

Dump ship's entire track history